createdAt,value
2023-01-30T00:03:05.667Z,19.60
2023-01-30T00:07:59.327Z,19.71
2023-01-30T00:12:52.644Z,19.60
2023-01-30T00:17:46.096Z,19.74
2023-01-30T00:22:46.434Z,19.73
2023-01-30T00:27:45.664Z,19.72
2023-01-30T00:32:39.285Z,19.60
2023-01-30T00:37:32.995Z,19.71
2023-01-30T00:42:44.152Z,19.64
2023-01-30T00:47:38.282Z,19.57
2023-01-30T00:52:33.059Z,19.64
2023-01-30T00:57:26.231Z,19.59
2023-01-30T01:02:18.518Z,19.70
2023-01-30T01:07:15.957Z,19.45
2023-01-30T01:12:09.856Z,19.69
2023-01-30T01:17:03.276Z,19.54
2023-01-30T01:21:56.672Z,19.68
2023-01-30T01:26:49.637Z,19.54
2023-01-30T01:31:43.814Z,19.65
2023-01-30T01:36:54.058Z,19.61
2023-01-30T01:41:48.416Z,19.70
2023-01-30T01:46:45.881Z,19.52
2023-01-30T01:51:45.263Z,19.66
2023-01-30T01:56:41.513Z,19.65
2023-01-30T02:01:35.575Z,19.58
2023-01-30T02:06:29.216Z,19.67
2023-01-30T02:11:57.350Z,19.65
2023-01-30T02:16:50.683Z,19.52
2023-01-30T02:22:14.612Z,19.61
2023-01-30T02:27:20.654Z,19.45
2023-01-30T02:32:22.452Z,19.59
2023-01-30T02:37:39.456Z,19.59
2023-01-30T02:42:57.040Z,19.55
2023-01-30T02:48:01.636Z,19.54
2023-01-30T02:52:55.075Z,19.54
2023-01-30T02:57:48.780Z,19.45
2023-01-30T03:03:10.793Z,19.55
2023-01-30T03:08:17.661Z,19.42
2023-01-30T03:13:48.340Z,19.40
2023-01-30T03:18:43.856Z,19.51
2023-01-30T03:23:36.742Z,19.35
2023-01-30T03:28:30.401Z,19.47
2023-01-30T03:33:23.439Z,19.43
2023-01-30T03:38:16.424Z,19.15
2023-01-30T03:43:09.885Z,19.35
2023-01-30T03:48:03.308Z,19.33
2023-01-30T03:52:56.281Z,19.32
2023-01-30T03:57:49.040Z,19.32
2023-01-30T04:02:44.075Z,19.05
2023-01-30T04:07:39.998Z,19.28
2023-01-30T04:12:35.334Z,19.24
2023-01-30T04:17:29.502Z,19.32
2023-01-30T04:22:42.975Z,19.33
2023-01-30T04:27:50.098Z,19.34
2023-01-30T04:32:50.451Z,19.28
2023-01-30T04:37:43.632Z,19.36
2023-01-30T04:42:40.247Z,19.34
2023-01-30T04:47:59.090Z,19.36
2023-01-30T04:52:52.673Z,19.32
2023-01-30T04:57:46.994Z,19.32
2023-01-30T05:02:39.593Z,19.25
2023-01-30T05:07:36.381Z,19.32
2023-01-30T05:12:31.399Z,19.38
2023-01-30T05:17:24.691Z,19.38
2023-01-30T05:22:18.045Z,19.38
2023-01-30T05:27:10.961Z,19.38
2023-01-30T05:32:04.748Z,19.38
2023-01-30T05:36:56.827Z,19.15
2023-01-30T05:41:50.592Z,19.37
2023-01-30T05:46:44.292Z,19.13
2023-01-30T05:51:37.012Z,19.14
2023-01-30T05:56:32.295Z,19.39
2023-01-30T06:01:26.646Z,19.39
2023-01-30T06:06:19.245Z,19.29
2023-01-30T06:11:33.373Z,19.24
2023-01-30T06:16:27.150Z,19.29
2023-01-30T06:21:20.661Z,19.30
2023-01-30T06:26:13.535Z,19.33
2023-01-30T06:31:08.397Z,19.39
2023-01-30T06:36:01.582Z,19.29
2023-01-30T06:40:55.099Z,19.21
2023-01-30T06:45:48.751Z,19.48
2023-01-30T06:50:42.689Z,19.39
2023-01-30T06:55:36.914Z,19.33
2023-01-30T07:00:31.160Z,19.24
2023-01-30T07:05:23.311Z,19.34
2023-01-30T07:10:18.199Z,19.26
2023-01-30T07:15:10.291Z,19.36
2023-01-30T07:20:03.094Z,19.24
2023-01-30T07:24:55.831Z,19.37
2023-01-30T07:29:48.003Z,19.27
2023-01-30T07:34:42.648Z,19.35
2023-01-30T07:39:36.261Z,19.31
2023-01-30T07:44:30.389Z,19.35
2023-01-30T07:49:24.089Z,19.32
2023-01-30T07:54:17.702Z,19.38
2023-01-30T07:59:11.949Z,19.38
2023-01-30T08:04:05.061Z,19.31
2023-01-30T08:08:58.209Z,19.23
2023-01-30T08:13:50.738Z,19.24
2023-01-30T08:18:43.009Z,19.40
2023-01-30T08:23:36.503Z,19.26
2023-01-30T08:28:30.846Z,19.40
2023-01-30T08:33:24.918Z,19.29
2023-01-30T08:38:18.161Z,19.41
2023-01-30T08:43:11.573Z,19.36
2023-01-30T08:48:05.879Z,19.39
2023-01-30T08:52:58.985Z,19.27
2023-01-30T08:57:52.728Z,19.42
2023-01-30T09:02:48.484Z,19.29
2023-01-30T09:07:41.345Z,19.34
2023-01-30T09:12:33.503Z,19.32
2023-01-30T09:17:26.913Z,19.29
2023-01-30T09:22:20.047Z,19.29
2023-01-30T09:27:13.152Z,19.17
2023-01-30T09:32:06.434Z,19.28
2023-01-30T09:37:04.991Z,19.15
2023-01-30T09:42:24.534Z,19.25
2023-01-30T09:47:36.683Z,19.13
2023-01-30T09:52:38.147Z,19.23
2023-01-30T09:57:30.992Z,19.21
2023-01-30T10:02:38.913Z,19.25
2023-01-30T10:07:48.600Z,19.22
2023-01-30T10:12:41.100Z,19.22
2023-01-30T10:17:57.050Z,19.01
2023-01-30T10:23:16.411Z,19.12
2023-01-30T10:28:39.456Z,19.23
2023-01-30T10:33:45.853Z,19.03
2023-01-30T10:38:52.688Z,19.07
2023-01-30T10:43:53.449Z,19.06
2023-01-30T10:48:52.187Z,19.20
2023-01-30T10:54:09.139Z,19.21
2023-01-30T10:59:22.416Z,19.18
2023-01-30T11:04:48.000Z,19.19
2023-01-30T11:09:44.145Z,19.17
2023-01-30T11:14:54.702Z,19.07
2023-01-30T11:20:15.769Z,19.17
2023-01-30T11:25:17.881Z,19.17
2023-01-30T11:30:20.419Z,19.06
2023-01-30T11:35:25.746Z,19.04
2023-01-30T11:40:18.292Z,19.16
2023-01-30T11:45:17.627Z,19.11
2023-01-30T11:50:24.526Z,19.08
2023-01-30T11:55:22.516Z,19.09
2023-01-30T12:00:21.211Z,18.92
2023-01-30T12:05:35.368Z,19.04
2023-01-30T12:10:32.249Z,18.89
2023-01-30T12:15:26.740Z,19.00
2023-01-30T12:20:47.794Z,18.90
2023-01-30T12:25:49.085Z,18.92
2023-01-30T12:30:56.732Z,18.90
2023-01-30T12:36:17.611Z,19.01
2023-01-30T12:41:41.276Z,18.95
2023-01-30T12:46:52.399Z,19.02
2023-01-30T12:52:08.985Z,19.04
2023-01-30T12:57:18.946Z,19.04
2023-01-30T13:02:30.933Z,19.02
2023-01-30T13:07:45.160Z,18.81
2023-01-30T13:12:58.836Z,18.91
2023-01-30T13:18:20.320Z,19.08
2023-01-30T13:23:19.441Z,19.12
2023-01-30T13:28:25.885Z,18.97
2023-01-30T13:33:47.677Z,19.06
2023-01-30T13:38:49.621Z,18.97
2023-01-30T13:44:04.755Z,18.97
2023-01-30T13:49:40.130Z,18.99
2023-01-30T13:54:41.994Z,18.92
2023-01-30T14:00:05.957Z,18.78
2023-01-30T14:05:48.516Z,18.88
2023-01-30T14:11:01.942Z,18.84
2023-01-30T14:15:59.273Z,18.61
2023-01-30T14:21:11.722Z,18.78
2023-01-30T14:26:05.122Z,18.80
2023-01-30T14:30:59.663Z,18.62
2023-01-30T14:36:00.511Z,18.76
2023-01-30T14:40:59.513Z,18.75
2023-01-30T14:45:53.488Z,18.67
2023-01-30T14:50:46.721Z,18.55
2023-01-30T14:55:40.372Z,18.56
2023-01-30T15:00:38.052Z,18.66
2023-01-30T15:05:39.840Z,18.69
2023-01-30T15:11:11.095Z,18.63
2023-01-30T15:16:22.202Z,18.76
2023-01-30T15:21:40.925Z,18.76
2023-01-30T15:26:36.965Z,18.78
2023-01-30T15:31:29.498Z,18.78
2023-01-30T15:36:39.300Z,18.66
2023-01-30T15:41:42.554Z,18.68
2023-01-30T15:46:50.460Z,18.82
2023-01-30T15:51:43.489Z,18.65
2023-01-30T15:56:37.020Z,18.82
2023-01-30T16:01:30.731Z,18.76
2023-01-30T16:06:29.247Z,18.55
2023-01-30T16:11:39.457Z,18.80
2023-01-30T16:16:35.451Z,18.53
2023-01-30T16:21:40.626Z,18.65
2023-01-30T16:26:35.877Z,18.77
2023-01-30T16:31:38.029Z,18.62
2023-01-30T16:36:33.312Z,18.74
2023-01-30T16:41:28.134Z,18.62
2023-01-30T16:46:47.876Z,18.59
2023-01-30T16:51:40.573Z,18.55
2023-01-30T16:56:35.362Z,18.38
2023-01-30T17:01:55.767Z,18.39
2023-01-30T17:06:56.068Z,18.63
2023-01-30T17:11:56.497Z,18.62
2023-01-30T17:17:10.058Z,18.65
2023-01-30T17:22:08.613Z,18.52
2023-01-30T17:27:04.490Z,18.63
2023-01-30T17:31:58.560Z,18.66
2023-01-30T17:36:53.182Z,18.56
2023-01-30T17:41:46.167Z,18.66
2023-01-30T17:46:45.469Z,18.51
2023-01-30T17:51:40.629Z,18.66
2023-01-30T17:56:38.931Z,18.53
2023-01-30T18:01:32.341Z,18.63
2023-01-30T18:06:28.017Z,18.70
2023-01-30T18:11:22.618Z,18.78
2023-01-30T18:16:24.282Z,18.62
2023-01-30T18:21:18.222Z,18.85
2023-01-30T18:26:13.151Z,18.96
2023-01-30T18:31:06.053Z,18.86
2023-01-30T18:35:57.788Z,18.64
2023-01-30T18:40:50.431Z,18.90
2023-01-30T18:45:43.019Z,18.63
2023-01-30T18:50:35.988Z,18.77
2023-01-30T18:55:28.790Z,18.89
2023-01-30T19:00:23.969Z,18.93
2023-01-30T19:05:17.787Z,18.90
2023-01-30T19:10:18.193Z,18.94
2023-01-30T19:15:11.829Z,18.89
2023-01-30T19:20:11.620Z,18.87
2023-01-30T19:25:05.625Z,18.93
2023-01-30T19:29:58.766Z,18.84
2023-01-30T19:34:52.177Z,18.87
2023-01-30T19:39:45.352Z,19.00
2023-01-30T19:44:41.381Z,18.97
2023-01-30T19:49:36.584Z,19.06
2023-01-30T19:54:29.780Z,18.60
2023-01-30T19:59:24.018Z,18.54
2023-01-30T20:04:17.941Z,18.66
2023-01-30T20:09:12.186Z,18.75
2023-01-30T20:14:07.132Z,18.78
2023-01-30T20:19:01.908Z,18.78
2023-01-30T20:23:54.504Z,18.54
2023-01-30T20:28:47.365Z,18.72
2023-01-30T20:33:41.242Z,18.64
2023-01-30T20:38:36.129Z,18.82
2023-01-30T20:43:34.274Z,18.74
2023-01-30T20:48:26.669Z,18.88
2023-01-30T20:53:19.265Z,18.82
2023-01-30T20:58:14.692Z,18.85
2023-01-30T21:03:08.544Z,18.95
2023-01-30T21:08:01.216Z,18.82
2023-01-30T21:12:53.837Z,18.85
2023-01-30T21:17:47.635Z,18.74
2023-01-30T21:22:41.139Z,19.03
2023-01-30T21:27:34.620Z,19.03
2023-01-30T21:32:27.344Z,18.81
2023-01-30T21:37:39.021Z,19.13
2023-01-30T21:42:50.385Z,18.93
2023-01-30T21:47:44.076Z,18.97
2023-01-30T21:52:37.929Z,19.01
2023-01-30T21:57:31.553Z,18.96
2023-01-30T22:02:24.243Z,19.01
2023-01-30T22:07:18.461Z,19.14
2023-01-30T22:12:11.635Z,18.99
2023-01-30T22:17:04.927Z,19.14
2023-01-30T22:21:59.812Z,18.97
2023-01-30T22:26:52.777Z,18.78
2023-01-30T22:31:45.947Z,19.01
2023-01-30T22:36:38.392Z,19.14
2023-01-30T22:41:38.656Z,19.11
2023-01-30T22:46:34.227Z,19.16
2023-01-30T22:51:29.683Z,19.14
2023-01-30T22:56:25.179Z,19.10
2023-01-30T23:01:35.942Z,19.04
2023-01-30T23:06:30.802Z,19.17
2023-01-30T23:11:29.244Z,19.16
2023-01-30T23:16:25.375Z,19.13
2023-01-30T23:21:17.929Z,19.16
2023-01-30T23:26:11.412Z,19.02
2023-01-30T23:31:08.764Z,19.06
2023-01-30T23:36:04.510Z,19.09
2023-01-30T23:41:08.376Z,19.08
2023-01-30T23:46:20.694Z,19.05
2023-01-30T23:51:16.796Z,19.18
2023-01-30T23:56:09.436Z,19.09
